createdAt,value
2022-08-28T00:00:19.439Z,100415.03
2022-08-28T00:01:21.610Z,100417.00
2022-08-28T00:02:24.135Z,100416.75
2022-08-28T00:03:26.313Z,100413.94
2022-08-28T00:04:28.620Z,100414.38
2022-08-28T00:05:32.198Z,100415.09
2022-08-28T00:06:34.449Z,100416.19
2022-08-28T00:07:40.820Z,100408.66
2022-08-28T00:08:44.523Z,100402.94
2022-08-28T00:09:46.721Z,100414.09
2022-08-28T00:10:48.837Z,100410.69
2022-08-28T00:11:51.075Z,100415.03
2022-08-28T00:12:55.948Z,100411.09
2022-08-28T00:13:58.838Z,100419.13
2022-08-28T00:15:01.020Z,100411.09
2022-08-28T00:16:03.328Z,100411.88
2022-08-28T00:17:05.574Z,100407.81
2022-08-28T00:18:08.497Z,100404.97
2022-08-28T00:19:11.266Z,100404.91
2022-08-28T00:20:15.208Z,100410.13
2022-08-28T00:21:17.369Z,100399.94
2022-08-28T00:22:19.547Z,100407.16
2022-08-28T00:23:22.095Z,100401.81
2022-08-28T00:24:24.187Z,100404.34
2022-08-28T00:25:28.167Z,100396.50
2022-08-28T00:26:49.297Z,100399.66
2022-08-28T00:27:57.628Z,100394.59
2022-08-28T00:29:00.541Z,100401.34
2022-08-28T00:30:02.654Z,100394.59
2022-08-28T00:31:05.434Z,100393.06
2022-08-28T00:32:10.161Z,100393.34
2022-08-28T00:33:20.115Z,100390.84
2022-08-28T00:34:32.051Z,100396.50
2022-08-28T00:35:35.383Z,100391.13
2022-08-28T00:36:38.840Z,100386.91
2022-08-28T00:37:41.142Z,100385.84
2022-08-28T00:38:46.115Z,100388.66
2022-08-28T00:39:49.450Z,100390.25
2022-08-28T00:40:54.131Z,100391.22
2022-08-28T00:41:57.991Z,100387.50
2022-08-28T00:43:05.702Z,100385.91
2022-08-28T00:44:14.058Z,100386.19
2022-08-28T00:45:18.556Z,100390.03
2022-08-28T00:46:23.919Z,100384.81
2022-08-28T00:47:26.856Z,100381.78
2022-08-28T00:48:28.887Z,100385.53
2022-08-28T00:49:36.182Z,100384.41
2022-08-28T00:51:00.770Z,100388.94
2022-08-28T00:52:08.480Z,100383.13
2022-08-28T00:53:14.009Z,100389.09
2022-08-28T00:54:16.211Z,100397.97
2022-08-28T00:55:22.591Z,100389.16
2022-08-28T00:56:25.691Z,100383.25
2022-08-28T00:57:49.870Z,100397.88
2022-08-28T00:58:53.636Z,100384.56
2022-08-28T00:59:55.779Z,100386.66
2022-08-28T01:00:57.867Z,100383.38
2022-08-28T01:02:00.506Z,100381.94
2022-08-28T01:03:05.906Z,100378.19
2022-08-28T01:04:09.111Z,100376.53
2022-08-28T01:05:11.920Z,100381.03
2022-08-28T01:06:16.117Z,100379.56
2022-08-28T01:07:18.300Z,100388.50
2022-08-28T01:08:20.684Z,100390.03
2022-08-28T01:09:29.510Z,100374.53
2022-08-28T01:10:34.909Z,100382.78
2022-08-28T01:11:37.064Z,100377.19
2022-08-28T01:12:39.445Z,100384.16
2022-08-28T01:13:46.805Z,100382.44
2022-08-28T01:14:55.139Z,100382.88
2022-08-28T01:15:58.448Z,100383.63
2022-08-28T01:17:00.906Z,100384.75
2022-08-28T01:18:10.441Z,100379.56
2022-08-28T01:19:21.605Z,100379.06
2022-08-28T01:20:29.060Z,100373.94
2022-08-28T01:21:44.793Z,100372.69
2022-08-28T01:23:24.703Z,100373.66
2022-08-28T01:24:27.734Z,100372.88
2022-08-28T01:25:34.002Z,100375.22
2022-08-28T01:26:38.900Z,100369.38
2022-08-28T01:27:44.311Z,100367.88
2022-08-28T01:28:47.107Z,100368.53
2022-08-28T01:29:50.363Z,100373.25
2022-08-28T01:30:52.398Z,100371.41
2022-08-28T01:31:54.889Z,100374.22
2022-08-28T01:32:57.190Z,100369.56
2022-08-28T01:33:59.523Z,100370.63
2022-08-28T01:35:03.003Z,100376.16
2022-08-28T01:36:05.573Z,100365.19
2022-08-28T01:37:07.641Z,100366.44
2022-08-28T01:38:09.690Z,100372.59
2022-08-28T01:39:18.048Z,100374.81
2022-08-28T01:40:41.502Z,100370.63
2022-08-28T01:41:47.073Z,100364.97
2022-08-28T01:42:49.760Z,100366.69
2022-08-28T01:43:53.979Z,100361.03
2022-08-28T01:44:56.556Z,100363.28
2022-08-28T01:46:02.359Z,100357.50
2022-08-28T01:47:04.748Z,100364.72
2022-08-28T01:48:07.890Z,100359.72
2022-08-28T01:49:12.147Z,100365.50
2022-08-28T01:50:19.017Z,100358.38
2022-08-28T01:51:24.470Z,100351.38
2022-08-28T01:52:26.775Z,100355.22
2022-08-28T01:53:32.573Z,100355.41
2022-08-28T01:54:35.283Z,100357.31
2022-08-28T01:55:38.214Z,100347.66
2022-08-28T01:56:44.580Z,100356.97
2022-08-28T01:57:53.976Z,100356.72
2022-08-28T01:58:56.057Z,100354.16
2022-08-28T01:59:58.281Z,100357.56
2022-08-28T02:01:00.530Z,100360.97
2022-08-28T02:02:02.675Z,100359.41
2022-08-28T02:03:05.431Z,100361.88
2022-08-28T02:04:07.592Z,100355.94
2022-08-28T02:05:10.712Z,100356.16
2022-08-28T02:06:13.709Z,100358.97
2022-08-28T02:07:17.195Z,100356.22
2022-08-28T02:08:20.494Z,100360.03
2022-08-28T02:09:22.523Z,100361.75
2022-08-28T02:10:26.971Z,100363.81
2022-08-28T02:11:30.693Z,100359.81
2022-08-28T02:12:32.979Z,100361.25
2022-08-28T02:13:38.446Z,100368.53
2022-08-28T02:14:40.493Z,100357.19
2022-08-28T02:15:43.343Z,100358.31
2022-08-28T02:16:45.716Z,100364.53
2022-08-28T02:17:47.984Z,100356.50
2022-08-28T02:18:50.193Z,100363.31
2022-08-28T02:19:52.638Z,100365.59
2022-08-28T02:20:54.731Z,100364.53
2022-08-28T02:21:57.036Z,100355.75
2022-08-28T02:22:59.697Z,100366.38
2022-08-28T02:24:02.138Z,100353.84
2022-08-28T02:25:05.490Z,100357.22
2022-08-28T02:26:08.771Z,100356.00
2022-08-28T02:27:11.138Z,100351.28
2022-08-28T02:28:13.726Z,100355.56
2022-08-28T02:29:16.108Z,100351.50
2022-08-28T02:30:19.997Z,100351.88
2022-08-28T02:31:22.389Z,100350.31
2022-08-28T02:32:25.923Z,100355.28
2022-08-28T02:33:28.121Z,100346.69
2022-08-28T02:34:30.228Z,100350.31
2022-08-28T02:35:32.595Z,100348.28
2022-08-28T02:36:34.632Z,100347.00
2022-08-28T02:37:36.917Z,100345.78
2022-08-28T02:38:39.371Z,100344.78
2022-08-28T02:39:41.529Z,100348.34
2022-08-28T02:40:44.405Z,100342.34
2022-08-28T02:41:46.564Z,100345.94
2022-08-28T02:42:48.687Z,100345.88
2022-08-28T02:43:50.748Z,100353.88
2022-08-28T02:44:53.321Z,100350.84
2022-08-28T02:45:55.612Z,100352.16
2022-08-28T02:46:58.216Z,100346.19
2022-08-28T02:48:02.111Z,100350.84
2022-08-28T02:49:04.263Z,100353.09
2022-08-28T02:50:09.383Z,100350.34
2022-08-28T02:51:14.604Z,100351.19
2022-08-28T02:52:16.837Z,100351.81
2022-08-28T02:53:19.037Z,100350.34
2022-08-28T02:54:21.978Z,100343.78
2022-08-28T02:55:25.657Z,100349.00
2022-08-28T02:56:29.043Z,100344.50
2022-08-28T02:57:31.183Z,100346.16
2022-08-28T02:58:35.575Z,100345.63
2022-08-28T02:59:38.584Z,100349.00
2022-08-28T03:00:41.575Z,100354.41
2022-08-28T03:01:43.623Z,100355.41
2022-08-28T03:02:50.735Z,100353.41
2022-08-28T03:03:52.863Z,100359.16
2022-08-28T03:04:59.312Z,100352.50
2022-08-28T03:06:01.581Z,100348.88
2022-08-28T03:07:04.809Z,100357.22
2022-08-28T03:08:09.452Z,100351.41
2022-08-28T03:09:11.582Z,100357.47
2022-08-28T03:10:13.886Z,100353.41
2022-08-28T03:11:16.087Z,100350.59
2022-08-28T03:12:18.256Z,100352.50
2022-08-28T03:13:26.503Z,100353.22
2022-08-28T03:14:29.410Z,100345.88
2022-08-28T03:15:31.760Z,100349.16
2022-08-28T03:16:34.574Z,100340.47
2022-08-28T03:17:37.494Z,100352.91
2022-08-28T03:18:39.794Z,100349.66
2022-08-28T03:19:42.114Z,100351.09
2022-08-28T03:20:45.896Z,100339.53
2022-08-28T03:21:48.378Z,100345.47
2022-08-28T03:23:13.003Z,100344.88
2022-08-28T03:24:15.737Z,100347.94
2022-08-28T03:25:18.740Z,100350.72
2022-08-28T03:26:21.324Z,100342.31
2022-08-28T03:27:23.344Z,100344.66
2022-08-28T03:28:27.788Z,100347.13
2022-08-28T03:29:29.895Z,100338.91
2022-08-28T03:30:32.051Z,100335.72
2022-08-28T03:31:36.104Z,100347.13
2022-08-28T03:32:40.472Z,100344.06
2022-08-28T03:33:42.973Z,100335.97
2022-08-28T03:34:45.252Z,100340.47
2022-08-28T03:35:47.485Z,100339.81
2022-08-28T03:36:50.048Z,100337.25
2022-08-28T03:37:52.018Z,100343.28
2022-08-28T03:38:56.335Z,100348.31
2022-08-28T03:39:58.373Z,100343.88
2022-08-28T03:41:02.709Z,100342.19
2022-08-28T03:42:06.225Z,100343.53
2022-08-28T03:43:14.711Z,100337.25
2022-08-28T03:44:16.918Z,100335.72
2022-08-28T03:45:19.132Z,100336.78
2022-08-28T03:46:23.963Z,100343.88
2022-08-28T03:47:29.688Z,100343.53
2022-08-28T03:48:34.871Z,100339.13
2022-08-28T03:49:36.995Z,100337.69
2022-08-28T03:50:40.625Z,100344.41
2022-08-28T03:51:44.319Z,100336.41
2022-08-28T03:52:46.438Z,100335.72
2022-08-28T03:53:48.587Z,100343.63
2022-08-28T03:54:51.713Z,100339.41
2022-08-28T03:55:54.603Z,100330.41
2022-08-28T03:56:56.667Z,100335.06
2022-08-28T03:57:58.710Z,100338.41
2022-08-28T03:59:04.443Z,100334.84
2022-08-28T04:00:10.679Z,100334.50
2022-08-28T04:01:16.162Z,100334.41
2022-08-28T04:02:21.725Z,100328.78
2022-08-28T04:03:23.932Z,100335.59
2022-08-28T04:04:25.994Z,100336.56
2022-08-28T04:05:28.963Z,100335.59
2022-08-28T04:06:31.387Z,100337.41
2022-08-28T04:07:38.143Z,100346.13
2022-08-28T04:08:44.539Z,100347.13
2022-08-28T04:09:47.359Z,100343.63
2022-08-28T04:10:50.494Z,100344.53
2022-08-28T04:11:55.420Z,100356.47
2022-08-28T04:12:57.637Z,100348.34
2022-08-28T04:14:00.032Z,100341.00
2022-08-28T04:15:03.164Z,100342.38
2022-08-28T04:16:11.037Z,100343.25
2022-08-28T04:17:13.440Z,100342.47
2022-08-28T04:18:16.048Z,100340.63
2022-08-28T04:19:18.291Z,100340.53
2022-08-28T04:20:21.370Z,100332.50
2022-08-28T04:21:26.227Z,100335.44
2022-08-28T04:22:30.757Z,100338.22
2022-08-28T04:23:40.257Z,100342.22
2022-08-28T04:24:42.352Z,100339.72
2022-08-28T04:25:44.458Z,100333.06
2022-08-28T04:26:47.053Z,100331.63
2022-08-28T04:27:51.756Z,100335.63
2022-08-28T04:28:55.081Z,100329.44
2022-08-28T04:29:58.436Z,100336.38
2022-08-28T04:31:01.167Z,100333.22
2022-08-28T04:32:04.054Z,100321.53
2022-08-28T04:33:06.543Z,100328.75
2022-08-28T04:34:29.639Z,100338.47
2022-08-28T04:35:32.655Z,100339.31
2022-08-28T04:36:35.944Z,100337.63
2022-08-28T04:37:39.322Z,100337.63
2022-08-28T04:38:44.042Z,100332.69
2022-08-28T04:39:46.485Z,100340.72
2022-08-28T04:40:49.542Z,100337.91
2022-08-28T04:41:51.826Z,100341.03
2022-08-28T04:42:54.063Z,100341.72
2022-08-28T04:43:57.601Z,100348.50
2022-08-28T04:45:00.511Z,100341.53
2022-08-28T04:46:08.609Z,100334.28
2022-08-28T04:47:11.432Z,100346.69
2022-08-28T04:48:14.724Z,100349.84
2022-08-28T04:49:17.565Z,100336.84
2022-08-28T04:50:20.996Z,100342.34
2022-08-28T04:51:23.264Z,100345.78
2022-08-28T04:52:27.853Z,100348.00
2022-08-28T04:53:29.895Z,100343.94
2022-08-28T04:54:35.233Z,100344.84
2022-08-28T04:55:54.760Z,100340.00
2022-08-28T04:56:57.284Z,100343.84
2022-08-28T04:57:59.590Z,100347.28
2022-08-28T04:59:01.867Z,100343.72
2022-08-28T05:00:07.336Z,100340.59
2022-08-28T05:01:16.400Z,100346.84
2022-08-28T05:02:18.526Z,100335.78
2022-08-28T05:03:21.397Z,100342.00
2022-08-28T05:04:24.003Z,100335.41
2022-08-28T05:05:28.396Z,100337.06
2022-08-28T05:06:33.335Z,100331.81
2022-08-28T05:07:35.392Z,100331.59
2022-08-28T05:08:37.485Z,100330.69
2022-08-28T05:09:39.731Z,100324.94
2022-08-28T05:10:43.118Z,100322.25
2022-08-28T05:11:48.184Z,100322.56
2022-08-28T05:12:50.783Z,100316.09
2022-08-28T05:13:54.510Z,100316.63
2022-08-28T05:14:56.698Z,100321.69
2022-08-28T05:15:58.820Z,100316.06
2022-08-28T05:17:01.171Z,100317.00
2022-08-28T05:18:03.914Z,100325.50
2022-08-28T05:19:07.065Z,100319.09
2022-08-28T05:20:13.824Z,100321.38
2022-08-28T05:21:22.957Z,100322.38
2022-08-28T05:22:27.373Z,100315.19
2022-08-28T05:23:30.828Z,100317.38
2022-08-28T05:24:34.919Z,100317.03
2022-08-28T05:25:44.074Z,100319.88
2022-08-28T05:26:48.343Z,100318.06
2022-08-28T05:27:55.223Z,100315.00
2022-08-28T05:28:59.986Z,100317.19
2022-08-28T05:30:03.222Z,100315.00
2022-08-28T05:31:14.223Z,100317.34
2022-08-28T05:32:19.270Z,100306.84
2022-08-28T05:33:22.222Z,100315.19
2022-08-28T05:34:24.313Z,100308.28
2022-08-28T05:35:27.538Z,100308.19
2022-08-28T05:36:33.344Z,100303.50
2022-08-28T05:37:35.746Z,100304.16
2022-08-28T05:38:39.953Z,100302.44
2022-08-28T05:39:42.202Z,100298.78
2022-08-28T05:40:47.428Z,100301.78
2022-08-28T05:41:52.948Z,100293.81
2022-08-28T05:42:56.473Z,100300.75
2022-08-28T05:44:04.984Z,100289.44
2022-08-28T05:45:09.700Z,100292.69
2022-08-28T05:46:12.230Z,100284.06
2022-08-28T05:47:15.492Z,100295.72
2022-08-28T05:48:18.668Z,100286.25
2022-08-28T05:49:20.787Z,100283.88
2022-08-28T05:50:23.557Z,100282.16
2022-08-28T05:51:26.891Z,100289.88
2022-08-28T05:52:30.784Z,100287.50
2022-08-28T05:53:39.075Z,100278.88
2022-08-28T05:54:41.390Z,100273.00
2022-08-28T05:55:44.684Z,100268.81
2022-08-28T05:56:51.353Z,100261.56
2022-08-28T05:57:53.478Z,100265.88
2022-08-28T05:58:56.378Z,100263.94
2022-08-28T05:59:58.607Z,100265.56
2022-08-28T06:01:16.839Z,100273.66
2022-08-28T06:02:19.891Z,100271.28
2022-08-28T06:03:25.214Z,100289.03
2022-08-28T06:04:28.557Z,100281.56
2022-08-28T06:05:30.663Z,100286.25
2022-08-28T06:06:38.524Z,100288.94
2022-08-28T06:07:42.250Z,100294.09
2022-08-28T06:08:58.048Z,100289.75
2022-08-28T06:10:01.247Z,100282.34
2022-08-28T06:11:05.517Z,100288.69
2022-08-28T06:12:10.009Z,100286.13
2022-08-28T06:13:14.330Z,100273.78
2022-08-28T06:14:19.739Z,100274.50
2022-08-28T06:15:22.390Z,100270.66
2022-08-28T06:16:24.893Z,100278.09
2022-08-28T06:17:27.082Z,100278.59
2022-08-28T06:18:29.558Z,100276.47
2022-08-28T06:19:37.212Z,100271.31
2022-08-28T06:20:45.151Z,100282.84
2022-08-28T06:21:48.693Z,100278.91
2022-08-28T06:22:51.874Z,100278.44
2022-08-28T06:23:54.604Z,100280.44
2022-08-28T06:24:56.865Z,100286.44
2022-08-28T06:25:59.732Z,100286.16
2022-08-28T06:27:01.833Z,100283.84
2022-08-28T06:28:04.119Z,100280.97
2022-08-28T06:29:09.377Z,100284.53
2022-08-28T06:30:12.772Z,100276.72
2022-08-28T06:31:23.191Z,100275.38
2022-08-28T06:32:27.638Z,100280.84
2022-08-28T06:33:30.663Z,100281.75
2022-08-28T06:34:32.856Z,100284.63
2022-08-28T06:35:35.018Z,100284.72
2022-08-28T06:36:41.993Z,100281.41
2022-08-28T06:37:45.110Z,100283.44
2022-08-28T06:38:47.285Z,100292.41
2022-08-28T06:39:49.363Z,100288.91
2022-08-28T06:40:55.345Z,100277.63
2022-08-28T06:42:03.064Z,100280.59
2022-08-28T06:43:05.503Z,100281.63
2022-08-28T06:44:12.701Z,100270.16
2022-08-28T06:45:15.265Z,100272.31
2022-08-28T06:46:19.269Z,100267.25
2022-08-28T06:47:23.785Z,100277.69
2022-08-28T06:48:30.651Z,100274.84
2022-08-28T06:49:32.802Z,100268.97
2022-08-28T06:50:39.804Z,100268.13
2022-08-28T06:52:11.646Z,100270.38
2022-08-28T06:54:41.725Z,100278.69
2022-08-28T06:56:01.316Z,100267.69
2022-08-28T06:57:13.831Z,100272.34
2022-08-28T06:58:17.088Z,100267.78
2022-08-28T06:59:20.205Z,100270.06
2022-08-28T07:00:22.655Z,100267.25
2022-08-28T07:01:31.458Z,100268.25
2022-08-28T07:02:34.194Z,100274.34
2022-08-28T07:03:37.425Z,100268.25
2022-08-28T07:04:54.433Z,100269.59
2022-08-28T07:05:59.146Z,100272.16
2022-08-28T07:07:01.674Z,100266.25
2022-08-28T07:08:06.782Z,100264.16
2022-08-28T07:09:14.520Z,100260.94
2022-08-28T07:10:17.177Z,100270.56
2022-08-28T07:11:27.760Z,100264.47
2022-08-28T07:12:32.873Z,100268.72
2022-08-28T07:13:42.416Z,100267.16
2022-08-28T07:14:44.861Z,100264.75
2022-08-28T07:15:47.169Z,100267.06
2022-08-28T07:16:51.937Z,100271.94
2022-08-28T07:17:54.152Z,100255.78
2022-08-28T07:18:59.536Z,100278.91
2022-08-28T07:20:03.740Z,100271.31
2022-08-28T07:21:11.594Z,100263.56
2022-08-28T07:22:14.871Z,100262.84
2022-08-28T07:23:17.134Z,100271.66
2022-08-28T07:24:19.564Z,100266.25
2022-08-28T07:25:22.141Z,100265.28
2022-08-28T07:26:26.333Z,100275.56
2022-08-28T07:27:29.218Z,100264.69
2022-08-28T07:28:31.707Z,100263.16
2022-08-28T07:29:33.825Z,100267.88
2022-08-28T07:30:36.182Z,100265.31
2022-08-28T07:31:44.159Z,100267.63
2022-08-28T07:32:49.443Z,100259.44
2022-08-28T07:33:54.223Z,100261.63
2022-08-28T07:34:57.324Z,100257.75
2022-08-28T07:36:01.680Z,100257.28
2022-08-28T07:37:04.704Z,100257.91
2022-08-28T07:38:07.247Z,100262.13
2022-08-28T07:39:11.261Z,100260.03
2022-08-28T07:40:13.553Z,100259.34
2022-08-28T07:41:28.390Z,100261.31
2022-08-28T07:42:49.031Z,100260.38
2022-08-28T07:44:10.795Z,100259.16
2022-08-28T07:45:12.855Z,100260.56
2022-08-28T07:46:15.262Z,100266.06
2022-08-28T07:47:18.754Z,100257.09
2022-08-28T07:48:21.355Z,100254.41
2022-08-28T07:49:25.115Z,100260.81
2022-08-28T07:50:27.407Z,100249.94
2022-08-28T07:51:29.727Z,100257.28
2022-08-28T07:52:31.940Z,100263.38
2022-08-28T07:53:36.477Z,100255.53
2022-08-28T07:54:40.825Z,100255.53
2022-08-28T07:55:43.525Z,100265.41
2022-08-28T07:56:48.134Z,100256.47
2022-08-28T07:57:50.476Z,100265.03
2022-08-28T07:59:04.928Z,100259.31
2022-08-28T08:00:08.424Z,100261.94
2022-08-28T08:01:13.492Z,100253.06
2022-08-28T08:02:16.899Z,100255.69
2022-08-28T08:03:21.395Z,100253.59
2022-08-28T08:04:27.309Z,100253.84
2022-08-28T08:05:29.691Z,100255.00
2022-08-28T08:06:34.116Z,100254.78
2022-08-28T08:07:41.899Z,100251.41
2022-08-28T08:08:46.631Z,100250.88
2022-08-28T08:09:48.924Z,100243.91
2022-08-28T08:11:16.987Z,100238.22
2022-08-28T08:12:21.121Z,100242.34
2022-08-28T08:13:23.516Z,100243.84
2022-08-28T08:14:25.865Z,100248.78
2022-08-28T08:15:31.215Z,100244.66
2022-08-28T08:16:36.546Z,100242.84
2022-08-28T08:17:39.499Z,100240.25
2022-08-28T08:18:42.616Z,100231.38
2022-08-28T08:19:44.690Z,100234.31
2022-08-28T08:20:46.858Z,100239.53
2022-08-28T08:21:55.096Z,100237.84
2022-08-28T08:22:57.555Z,100225.63
2022-08-28T08:24:00.243Z,100231.88
2022-08-28T08:25:05.135Z,100243.66
2022-08-28T08:26:13.200Z,100244.66
2022-08-28T08:27:15.349Z,100236.53
2022-08-28T08:28:17.788Z,100241.19
2022-08-28T08:29:20.841Z,100248.50
2022-08-28T08:30:25.073Z,100233.16
2022-08-28T08:33:10.324Z,100238.47
2022-08-28T08:36:07.028Z,100233.56
2022-08-28T08:37:09.919Z,100241.59
2022-08-28T08:38:12.771Z,100243.16
2022-08-28T08:39:17.243Z,100241.09
2022-08-28T08:40:20.932Z,100250.38
2022-08-28T08:41:26.810Z,100245.22
2022-08-28T08:42:33.470Z,100240.31
2022-08-28T08:43:54.579Z,100243.44
2022-08-28T08:45:06.462Z,100233.75
2022-08-28T08:46:10.126Z,100239.53
2022-08-28T08:47:22.252Z,100240.25
2022-08-28T08:48:34.237Z,100243.41
2022-08-28T08:49:43.609Z,100239.78
2022-08-28T08:50:45.963Z,100245.25
2022-08-28T08:51:55.444Z,100235.63
2022-08-28T08:53:45.269Z,100236.94
2022-08-28T08:55:06.384Z,100235.38
2022-08-28T08:56:15.917Z,100234.34
2022-08-28T08:57:19.014Z,100235.91
2022-08-28T08:58:36.464Z,100237.44
2022-08-28T08:59:40.352Z,100234.31
2022-08-28T09:01:01.192Z,100240.81
2022-08-28T09:02:12.629Z,100238.94
2022-08-28T09:03:22.580Z,100230.66
2022-08-28T09:04:34.676Z,100227.78
2022-08-28T09:05:58.735Z,100233.00
2022-08-28T09:07:20.852Z,100235.09
2022-08-28T09:08:32.692Z,100230.66
2022-08-28T09:09:38.534Z,100229.63
2022-08-28T09:10:48.695Z,100234.31
2022-08-28T09:11:59.061Z,100224.81
2022-08-28T09:13:13.565Z,100231.03
2022-08-28T09:14:44.280Z,100233.34
2022-08-28T09:15:50.728Z,100232.56
2022-08-28T09:16:56.954Z,100233.03
2022-08-28T09:18:08.238Z,100227.13
2022-08-28T09:19:15.509Z,100225.28
2022-08-28T09:20:25.888Z,100221.09
2022-08-28T09:21:41.535Z,100217.88
2022-08-28T09:24:01.208Z,100217.13
2022-08-28T09:25:29.821Z,100209.69
2022-08-28T09:26:31.957Z,100218.88
2022-08-28T09:27:39.430Z,100212.91
2022-08-28T09:28:42.593Z,100203.53
2022-08-28T09:29:57.867Z,100213.06
2022-08-28T09:31:15.868Z,100203.44
2022-08-28T09:32:31.117Z,100208.22
2022-08-28T09:33:45.010Z,100208.22
2022-08-28T09:35:08.545Z,100207.72
2022-08-28T09:36:38.002Z,100211.38
2022-08-28T09:37:41.513Z,100207.47
2022-08-28T09:38:43.592Z,100209.03
2022-08-28T09:39:48.893Z,100209.81
2022-08-28T09:41:26.926Z,100212.22
2022-08-28T09:42:48.129Z,100209.38
2022-08-28T09:43:50.308Z,100215.63
2022-08-28T09:44:56.804Z,100207.78
2022-08-28T09:46:03.346Z,100213.81
2022-08-28T09:47:05.538Z,100208.59
2022-08-28T09:48:21.692Z,100208.06
2022-08-28T09:49:30.698Z,100196.34
2022-08-28T09:50:42.897Z,100195.84
2022-08-28T09:51:48.122Z,100201.56
2022-08-28T09:52:52.400Z,100196.63
2022-08-28T09:53:59.905Z,100201.84
2022-08-28T09:55:02.741Z,100193.25
2022-08-28T09:56:34.499Z,100201.31
2022-08-28T09:57:36.994Z,100190.63
2022-08-28T09:59:07.067Z,100193.75
2022-08-28T10:00:10.728Z,100185.44
2022-08-28T10:01:27.373Z,100183.59
2022-08-28T10:02:43.853Z,100189.34
2022-08-28T10:04:04.508Z,100186.72
2022-08-28T10:05:16.711Z,100175.28
2022-08-28T10:06:32.118Z,100178.06
2022-08-28T10:07:48.872Z,100170.75
2022-08-28T10:09:08.994Z,100167.63
2022-08-28T10:10:39.620Z,100182.25
2022-08-28T10:11:51.077Z,100175.75
2022-08-28T10:13:16.988Z,100171.56
2022-08-28T10:14:39.231Z,100173.38
2022-08-28T10:16:03.787Z,100175.69
2022-08-28T10:17:06.609Z,100174.94
2022-08-28T10:18:43.780Z,100176.22
2022-08-28T10:20:17.674Z,100180.16
2022-08-28T10:21:38.296Z,100179.09
2022-08-28T10:22:57.262Z,100168.94
2022-08-28T10:24:15.172Z,100161.91
2022-08-28T10:25:45.509Z,100177.88
2022-08-28T10:27:08.523Z,100168.75
2022-08-28T10:28:40.956Z,100161.91
2022-08-28T10:29:48.396Z,100154.63
2022-08-28T10:31:11.334Z,100166.34
2022-08-28T10:32:20.974Z,100163.75
2022-08-28T10:33:44.931Z,100158.25
2022-08-28T10:35:18.523Z,100161.19
2022-08-28T10:36:33.233Z,100157.25
2022-08-28T10:37:51.699Z,100169.19
2022-08-28T10:39:30.594Z,100159.53
2022-08-28T10:40:44.766Z,100166.16
2022-08-28T10:42:07.438Z,100157.28
2022-08-28T10:43:30.544Z,100151.00
2022-08-28T10:44:52.643Z,100152.28
2022-08-28T10:45:55.405Z,100157.25
2022-08-28T10:46:59.604Z,100156.44
2022-08-28T10:48:10.686Z,100152.00
2022-08-28T10:49:34.912Z,100156.72
2022-08-28T10:50:47.354Z,100150.41
2022-08-28T10:51:57.340Z,100151.94
2022-08-28T10:53:16.943Z,100152.53
2022-08-28T10:54:35.099Z,100154.84
2022-08-28T10:55:58.557Z,100147.84
2022-08-28T10:57:39.407Z,100151.72
2022-08-28T10:58:42.477Z,100161.69
2022-08-28T10:59:49.171Z,100161.41
2022-08-28T11:01:01.525Z,100150.44
2022-08-28T11:02:07.216Z,100149.44
2022-08-28T11:03:32.954Z,100153.09
2022-08-28T11:04:35.983Z,100151.53
2022-08-28T11:05:53.872Z,100142.38
2022-08-28T11:07:05.841Z,100137.44
2022-08-28T11:08:23.071Z,100143.69
2022-08-28T11:09:46.995Z,100143.66
2022-08-28T11:10:53.873Z,100145.22
2022-08-28T11:12:10.476Z,100142.88
2022-08-28T11:13:13.554Z,100144.69
2022-08-28T11:14:35.710Z,100141.56
2022-08-28T11:15:53.660Z,100145.19
2022-08-28T11:17:01.846Z,100154.06
2022-08-28T11:18:16.026Z,100134.75
2022-08-28T11:19:29.796Z,100129.53
2022-08-28T11:20:32.660Z,100137.88
2022-08-28T11:21:48.011Z,100141.31
2022-08-28T11:22:53.480Z,100131.47
2022-08-28T11:24:08.420Z,100136.66
2022-08-28T11:25:17.388Z,100126.50
2022-08-28T11:26:34.155Z,100130.22
2022-08-28T11:27:38.260Z,100134.41
2022-08-28T11:28:48.127Z,100124.00
2022-08-28T11:30:08.166Z,100126.34
2022-08-28T11:31:16.316Z,100130.00
2022-08-28T11:33:53.363Z,100122.97
2022-08-28T11:35:03.457Z,100125.34
2022-08-28T11:36:33.054Z,100119.34
2022-08-28T11:37:44.246Z,100118.03
2022-08-28T11:38:53.432Z,100118.81
2022-08-28T11:40:39.335Z,100122.47
2022-08-28T11:42:10.707Z,100123.25
2022-08-28T11:43:16.182Z,100118.81
2022-08-28T11:44:28.548Z,100120.91
2022-08-28T11:45:46.504Z,100120.38
2022-08-28T11:46:51.950Z,100115.69
2022-08-28T11:47:56.844Z,100114.91
2022-08-28T11:49:02.457Z,100109.97
2022-08-28T11:50:22.127Z,100107.09
2022-08-28T11:51:47.162Z,100109.16
2022-08-28T11:53:08.037Z,100108.91
2022-08-28T11:54:38.067Z,100109.47
2022-08-28T11:56:01.012Z,100110.22
2022-08-28T11:57:15.262Z,100110.22
2022-08-28T11:58:39.793Z,100112.31
2022-08-28T12:00:04.513Z,100109.47
2022-08-28T12:01:13.071Z,100109.47
2022-08-28T12:02:40.010Z,100110.97
2022-08-28T12:04:06.111Z,100102.88
2022-08-28T12:05:35.335Z,100102.06
2022-08-28T12:06:49.400Z,100105.72
2022-08-28T12:07:52.054Z,100097.31
2022-08-28T12:08:58.902Z,100093.22
2022-08-28T12:10:05.104Z,100102.63
2022-08-28T12:11:07.620Z,100101.59
2022-08-28T12:12:22.822Z,100098.44
2022-08-28T12:13:49.740Z,100101.81
2022-08-28T12:14:59.276Z,100098.88
2022-08-28T12:16:08.255Z,100094.50
2022-08-28T12:17:17.191Z,100095.75
2022-08-28T12:18:42.906Z,100099.41
2022-08-28T12:19:55.267Z,100100.50
2022-08-28T12:21:02.607Z,100097.66
2022-08-28T12:22:07.010Z,100102.56
2022-08-28T12:23:35.523Z,100095.31
2022-08-28T12:24:49.380Z,100093.75
2022-08-28T12:26:16.271Z,100096.56
2022-08-28T12:27:18.948Z,100099.97
2022-08-28T12:29:05.687Z,100093.69
2022-08-28T12:30:08.402Z,100093.66
2022-08-28T12:32:13.032Z,100097.59
2022-08-28T12:33:41.375Z,100103.16
2022-08-28T12:34:47.985Z,100089.50
2022-08-28T12:35:50.531Z,100082.22
2022-08-28T12:36:58.799Z,100084.81
2022-08-28T12:38:06.748Z,100092.63
2022-08-28T12:39:18.411Z,100084.81
2022-08-28T12:40:20.605Z,100082.97
2022-08-28T12:41:26.892Z,100088.97
2022-08-28T12:42:38.712Z,100089.50
2022-08-28T12:43:46.803Z,100089.22
2022-08-28T12:44:49.530Z,100073.88
2022-08-28T12:46:19.535Z,100088.25
2022-08-28T12:47:23.876Z,100083.59
2022-08-28T12:48:33.696Z,100077.03
2022-08-28T12:49:38.137Z,100075.47
2022-08-28T12:50:41.403Z,100079.38
2022-08-28T12:51:44.891Z,100078.53
2022-08-28T12:52:55.545Z,100077.00
2022-08-28T12:54:00.961Z,100077.25
2022-08-28T12:55:05.007Z,100067.34
2022-08-28T12:56:10.255Z,100075.38
2022-08-28T12:57:23.909Z,100075.69
2022-08-28T12:58:36.216Z,100067.44